Time;durP1;ratioP1;P1;durP2;ratioP2;P2;SDS_P1;SDS_P2;PMS_P1;PMS_P2;Temp;Humidity;BMP_temperature;BMP_pressure;BME280_temperature;BME280_humidity;BME280_pressure;Samples;Min_cycle;Max_cycle;Signal;HPM_P1;HPM_P2
2021/09/22 00:00:15;;;;;;;;;;;21.30;72.00;;;;;;4997092;28;1335;-71
2021/09/22 00:02:40;;;;;;;;;;;21.30;72.00;;;;;;5014735;28;1259;-71
2021/09/22 00:05:06;;;;;;;;;;;21.30;72.10;;;;;;4997052;28;1289;-71
2021/09/22 00:07:32;;;;;;;;;;;21.20;72.00;;;;;;5014079;28;1312;-71
2021/09/22 00:09:57;;;;;;;;;;;21.20;72.00;;;;;;5014362;28;1953;-71
2021/09/22 00:12:22;;;;;;;;;;;21.30;72.10;;;;;;5014391;28;1357;-70
2021/09/22 00:14:48;;;;;;;;;;;21.20;72.00;;;;;;4997002;28;1277;-71
2021/09/22 00:17:13;;;;;;;;;;;21.20;72.00;;;;;;5014202;28;1332;-71
2021/09/22 00:19:39;;;;;;;;;;;21.20;72.10;;;;;;5014357;28;1325;-71
2021/09/22 00:22:04;;;;;;;;;;;21.20;72.10;;;;;;5014594;28;1393;-69
2021/09/22 00:24:29;;;;;;;;;;;21.20;72.10;;;;;;5014161;28;1379;-69
2021/09/22 00:26:55;;;;;;;;;;;21.20;72.10;;;;;;5014157;28;1363;-69
2021/09/22 00:29:20;;;;;;;;;;;21.20;72.10;;;;;;5014502;28;1899;-69
2021/09/22 00:31:46;;;;;;;;;;;21.20;72.10;;;;;;5014104;28;1355;-69
2021/09/22 00:34:11;;;;;;;;;;;21.20;72.20;;;;;;5014049;28;1287;-69
2021/09/22 00:36:37;;;;;;;;;;;21.20;72.20;;;;;;5014015;28;1308;-70
2021/09/22 00:39:02;;;;;;;;;;;21.20;72.20;;;;;;5014329;28;1253;-71
2021/09/22 00:41:28;;;;;;;;;;;21.20;72.20;;;;;;5013714;28;1412;-69
2021/09/22 00:43:53;;;;;;;;;;;21.20;72.20;;;;;;5013980;28;1291;-69
2021/09/22 00:46:18;;;;;;;;;;;21.20;72.20;;;;;;4996094;28;1270;-69
2021/09/22 00:48:44;;;;;;;;;;;21.20;72.30;;;;;;5013621;28;1914;-70
2021/09/22 00:51:09;;;;;;;;;;;21.20;72.30;;;;;;4996221;28;1381;-70
2021/09/22 00:53:35;;;;;;;;;;;21.20;72.30;;;;;;5012970;28;1351;-71
2021/09/22 00:56:03;;;;;;;;;;;21.20;72.30;;;;;;5013386;28;1175;-69
2021/09/22 00:58:28;;;;;;;;;;;21.20;72.30;;;;;;4996916;28;1280;-69
2021/09/22 01:00:54;;;;;;;;;;;21.20;72.30;;;;;;5013650;28;1187;-70
2021/09/22 01:03:19;;;;;;;;;;;21.20;72.30;;;;;;4996047;28;1301;-70
2021/09/22 01:05:45;;;;;;;;;;;21.20;72.30;;;;;;5013288;28;1342;-70
2021/09/22 01:08:10;;;;;;;;;;;21.20;72.30;;;;;;4995840;28;1286;-69
2021/09/22 01:10:36;;;;;;;;;;;21.10;72.30;;;;;;5013234;28;2006;-69
2021/09/22 01:13:01;;;;;;;;;;;21.10;72.30;;;;;;4995997;28;1304;-69
2021/09/22 01:15:28;;;;;;;;;;;21.10;72.30;;;;;;5013267;28;1280;-68
2021/09/22 01:17:53;;;;;;;;;;;21.20;72.40;;;;;;4995830;28;1309;-70
2021/09/22 01:20:19;;;;;;;;;;;21.10;72.30;;;;;;5013133;28;1355;-69
2021/09/22 01:22:44;;;;;;;;;;;21.10;72.40;;;;;;5013245;28;1297;-70
2021/09/22 01:25:10;;;;;;;;;;;21.10;72.40;;;;;;5013193;28;1239;-69
2021/09/22 01:27:44;;;;;;;;;;;21.20;72.50;;;;;;4995454;28;1073;-69
2021/09/22 01:30:09;;;;;;;;;;;21.20;72.50;;;;;;5013363;28;1902;-70
2021/09/22 01:32:35;;;;;;;;;;;21.10;72.50;;;;;;5013270;28;1333;-69
2021/09/22 01:35:00;;;;;;;;;;;21.10;72.40;;;;;;5012922;28;1315;-70
2021/09/22 01:37:26;;;;;;;;;;;21.10;72.50;;;;;;5013005;28;1187;-69
2021/09/22 01:39:51;;;;;;;;;;;21.10;72.40;;;;;;5013199;28;1304;-69
2021/09/22 01:42:17;;;;;;;;;;;21.10;72.40;;;;;;5013106;28;1274;-69
2021/09/22 01:44:42;;;;;;;;;;;21.20;72.50;;;;;;5012883;28;1268;-69
2021/09/22 01:47:07;;;;;;;;;;;21.20;72.40;;;;;;5012911;28;1342;-72
2021/09/22 01:49:33;;;;;;;;;;;21.20;72.40;;;;;;5012713;28;1963;-72
2021/09/22 01:52:00;;;;;;;;;;;21.20;72.40;;;;;;4995727;28;1345;-72
2021/09/22 01:54:25;;;;;;;;;;;21.20;72.30;;;;;;5012864;28;1260;-71
2021/09/22 01:56:51;;;;;;;;;;;21.20;72.20;;;;;;5012728;28;1245;-71
2021/09/22 01:59:17;;;;;;;;;;;21.20;72.10;;;;;;4995326;28;1268;-71
2021/09/22 02:01:43;;;;;;;;;;;21.20;72.00;;;;;;4995382;28;1720;-70
2021/09/22 02:04:08;;;;;;;;;;;21.30;72.10;;;;;;4995637;28;1308;-71
2021/09/22 02:06:34;;;;;;;;;;;21.30;72.00;;;;;;4998993;28;1308;-70
2021/09/22 02:08:59;;;;;;;;;;;21.30;71.90;;;;;;5016559;28;1890;-70
2021/09/22 02:11:25;;;;;;;;;;;21.30;71.80;;;;;;5016875;28;1293;-70
2021/09/22 02:13:50;;;;;;;;;;;21.30;71.80;;;;;;5016598;28;1301;-70
2021/09/22 02:16:15;;;;;;;;;;;21.30;71.80;;;;;;5016460;28;1233;-70
2021/09/22 02:18:41;;;;;;;;;;;21.30;71.70;;;;;;5016476;28;1341;-70
2021/09/22 02:21:09;;;;;;;;;;;21.30;71.60;;;;;;4999051;28;1332;-69
2021/09/22 02:23:36;;;;;;;;;;;21.40;72.40;;;;;;5016603;28;1119;-72
2021/09/22 02:26:01;;;;;;;;;;;21.40;71.70;;;;;;4989617;28;1076;-69
2021/09/22 02:28:27;;;;;;;;;;;21.40;71.60;;;;;;5016513;28;1337;-70
2021/09/22 02:30:52;;;;;;;;;;;21.40;71.50;;;;;;5016366;28;1907;-69
2021/09/22 02:33:18;;;;;;;;;;;21.40;71.50;;;;;;5016188;28;1269;-70
2021/09/22 02:35:43;;;;;;;;;;;21.40;71.50;;;;;;5015966;28;1320;-70
2021/09/22 02:38:08;;;;;;;;;;;21.40;71.40;;;;;;5016240;28;1293;-69
2021/09/22 02:40:34;;;;;;;;;;;21.40;71.40;;;;;;5016052;28;1275;-69
2021/09/22 02:42:59;;;;;;;;;;;21.40;71.40;;;;;;5016224;28;1344;-69
2021/09/22 02:45:25;;;;;;;;;;;21.40;71.40;;;;;;5016158;28;1407;-71
2021/09/22 02:47:50;;;;;;;;;;;21.40;71.40;;;;;;5015777;28;1085;-71
2021/09/22 02:50:18;;;;;;;;;;;21.40;71.40;;;;;;5015797;28;1903;-71
2021/09/22 02:52:44;;;;;;;;;;;21.40;71.40;;;;;;5016229;28;1668;-70
2021/09/22 02:55:09;;;;;;;;;;;21.40;71.40;;;;;;5016254;28;1693;-71
2021/09/22 02:57:35;;;;;;;;;;;21.40;71.40;;;;;;5015717;28;1353;-70
2021/09/22 03:00:02;;;;;;;;;;;21.40;71.40;;;;;;5015969;28;1308;-71
2021/09/22 03:02:28;;;;;;;;;;;21.40;71.40;;;;;;5015711;28;1290;-71
2021/09/22 03:04:53;;;;;;;;;;;21.40;71.40;;;;;;5015720;28;1368;-70
2021/09/22 03:07:18;;;;;;;;;;;21.40;71.40;;;;;;5015416;28;1265;-71
2021/09/22 03:09:44;;;;;;;;;;;21.40;71.40;;;;;;4997974;28;1894;-71
2021/09/22 03:12:09;;;;;;;;;;;21.40;71.40;;;;;;5015579;28;1425;-71
2021/09/22 03:14:35;;;;;;;;;;;21.40;71.50;;;;;;4997982;28;1209;-71
2021/09/22 03:17:00;;;;;;;;;;;21.40;71.50;;;;;;5014490;28;1182;-71
2021/09/22 03:19:26;;;;;;;;;;;21.40;71.50;;;;;;5015410;28;1262;-70
2021/09/22 03:21:51;;;;;;;;;;;21.40;71.50;;;;;;5015466;28;1296;-71
2021/09/22 03:24:16;;;;;;;;;;;21.40;71.50;;;;;;5015487;28;1276;-71
2021/09/22 03:26:42;;;;;;;;;;;21.40;71.60;;;;;;5015254;28;1286;-71
2021/09/22 03:29:07;;;;;;;;;;;21.40;71.60;;;;;;4997686;28;1953;-71
2021/09/22 03:31:33;;;;;;;;;;;21.40;71.60;;;;;;5015252;28;1276;-71
2021/09/22 03:33:58;;;;;;;;;;;21.40;71.60;;;;;;5014921;28;1167;-70
2021/09/22 03:36:24;;;;;;;;;;;21.40;71.60;;;;;;5014929;28;1124;-71
2021/09/22 03:38:49;;;;;;;;;;;21.30;71.60;;;;;;5014972;28;1335;-70
2021/09/22 03:41:15;;;;;;;;;;;21.30;71.60;;;;;;5044725;22;1976;-72
2021/09/22 03:43:40;;;;;;;;;;;21.30;71.60;;;;;;5021330;28;1072;-72
2021/09/22 03:46:06;;;;;;;;;;;21.30;71.70;;;;;;5047163;28;1073;-72
2021/09/22 03:48:32;;;;;;;;;;;21.30;71.70;;;;;;5067716;28;1112;-73
2021/09/22 03:50:57;;;;;;;;;;;21.30;71.70;;;;;;5054513;28;1910;-72
2021/09/22 03:53:23;;;;;;;;;;;21.30;71.70;;;;;;5054598;28;1160;-72
2021/09/22 03:55:48;;;;;;;;;;;21.30;71.70;;;;;;5054246;28;1068;-73
2021/09/22 03:58:14;;;;;;;;;;;21.30;71.70;;;;;;5054643;28;1195;-72
2021/09/22 04:00:39;;;;;;;;;;;21.30;71.80;;;;;;5066604;28;1277;-73
2021/09/22 04:03:04;;;;;;;;;;;21.30;71.80;;;;;;5037430;28;1131;-72
2021/09/22 04:05:30;;;;;;;;;;;21.30;71.80;;;;;;5036474;28;1069;-72
2021/09/22 04:07:55;;;;;;;;;;;21.30;71.80;;;;;;5036071;28;1128;-72
2021/09/22 04:10:21;;;;;;;;;;;21.30;72.10;;;;;;5054198;28;1940;-72
2021/09/22 04:12:46;;;;;;;;;;;21.30;71.80;;;;;;5072482;28;1377;-72
2021/09/22 04:15:12;;;;;;;;;;;21.30;71.80;;;;;;5074064;28;985;-72
2021/09/22 04:17:37;;;;;;;;;;;21.30;71.80;;;;;;5055278;28;1096;-73
2021/09/22 04:20:03;;;;;;;;;;;21.30;71.70;;;;;;5036175;28;1068;-72
2021/09/22 04:22:28;;;;;;;;;;;21.30;71.70;;;;;;5054154;28;1330;-72
2021/09/22 04:24:54;;;;;;;;;;;21.30;71.70;;;;;;5036081;28;1092;-72
2021/09/22 04:27:19;;;;;;;;;;;21.40;71.70;;;;;;5057729;28;1089;-73
2021/09/22 04:29:45;;;;;;;;;;;21.40;71.70;;;;;;5044593;28;1957;-72
2021/09/22 04:32:11;;;;;;;;;;;21.40;71.60;;;;;;5039898;28;1363;-72
2021/09/22 04:34:37;;;;;;;;;;;21.40;71.60;;;;;;5062448;28;1056;-72
2021/09/22 04:37:02;;;;;;;;;;;21.40;71.50;;;;;;5035739;28;1144;-72
2021/09/22 04:39:27;;;;;;;;;;;21.40;71.40;;;;;;5053872;28;1104;-72
2021/09/22 04:41:53;;;;;;;;;;;21.40;71.40;;;;;;5066874;28;1209;-72
2021/09/22 04:44:18;;;;;;;;;;;21.40;71.40;;;;;;5053550;28;1132;-72
2021/09/22 04:46:44;;;;;;;;;;;21.40;71.30;;;;;;5035477;28;1120;-72
2021/09/22 04:49:09;;;;;;;;;;;21.40;71.30;;;;;;5035605;28;1909;-72
2021/09/22 04:51:35;;;;;;;;;;;21.50;71.30;;;;;;5053440;28;1335;-72
2021/09/22 04:54:00;;;;;;;;;;;21.50;72.10;;;;;;5053381;28;1044;-72
2021/09/22 04:56:26;;;;;;;;;;;21.50;71.30;;;;;;5053105;28;1112;-72
2021/09/22 04:58:51;;;;;;;;;;;21.50;71.20;;;;;;5063913;28;1107;-72
2021/09/22 05:01:16;;;;;;;;;;;21.50;71.20;;;;;;5055820;28;1244;-72
2021/09/22 05:03:42;;;;;;;;;;;21.50;71.10;;;;;;5053331;28;1144;-72
2021/09/22 05:06:07;;;;;;;;;;;21.50;71.10;;;;;;5052930;28;1060;-73
2021/09/22 05:08:33;;;;;;;;;;;21.50;71.10;;;;;;5053168;28;1072;-74
2021/09/22 05:10:58;;;;;;;;;;;21.50;71.10;;;;;;5056493;28;1898;-71
2021/09/22 05:13:24;;;;;;;;;;;21.50;71.10;;;;;;5063415;28;1138;-72
2021/09/22 05:15:49;;;;;;;;;;;21.50;71.00;;;;;;5052571;28;1048;-73
2021/09/22 05:18:15;;;;;;;;;;;21.50;71.00;;;;;;5035205;28;1068;-72
2021/09/22 05:20:40;;;;;;;;;;;21.50;71.00;;;;;;5035059;28;1280;-72
2021/09/22 05:23:06;;;;;;;;;;;21.50;71.00;;;;;;5052966;28;1076;-72
2021/09/22 05:25:31;;;;;;;;;;;21.50;70.90;;;;;;5034842;28;1115;-77
2021/09/22 05:27:57;;;;;;;;;;;21.50;71.00;;;;;;5052860;28;1095;-72
2021/09/22 05:30:22;;;;;;;;;;;21.50;70.90;;;;;;5052737;28;1890;-72
2021/09/22 05:32:48;;;;;;;;;;;21.50;70.90;;;;;;5052798;28;1184;-72
2021/09/22 05:35:13;;;;;;;;;;;21.50;71.00;;;;;;5034946;28;1069;-71
2021/09/22 05:37:39;;;;;;;;;;;21.50;70.90;;;;;;5015005;28;1212;-72
2021/09/22 05:40:05;;;;;;;;;;;21.60;71.00;;;;;;5034421;28;1104;-74
2021/09/22 05:42:30;;;;;;;;;;;21.60;71.00;;;;;;5018303;28;1290;-72
2021/09/22 05:44:55;;;;;;;;;;;21.60;71.00;;;;;;5065873;28;1064;-72
2021/09/22 05:47:21;;;;;;;;;;;21.60;70.90;;;;;;5052365;28;1139;-72
2021/09/22 05:49:46;;;;;;;;;;;21.60;70.90;;;;;;5034806;28;1977;-72
2021/09/22 05:52:12;;;;;;;;;;;21.50;70.80;;;;;;5034850;28;1240;-72
2021/09/22 05:54:37;;;;;;;;;;;21.60;70.90;;;;;;5034630;28;1168;-72
2021/09/22 05:57:03;;;;;;;;;;;21.60;70.90;;;;;;5052367;28;1057;-72
2021/09/22 05:59:29;;;;;;;;;;;21.60;70.90;;;;;;5052600;28;1060;-72
2021/09/22 06:01:55;;;;;;;;;;;21.60;70.90;;;;;;5034809;28;1212;-72
2021/09/22 06:04:20;;;;;;;;;;;21.60;70.70;;;;;;5036273;28;1208;-72
2021/09/22 06:06:46;;;;;;;;;;;21.60;70.40;;;;;;5046114;28;1335;-72
2021/09/22 06:09:11;;;;;;;;;;;21.60;70.30;;;;;;5052270;28;1953;-75
2021/09/22 06:11:37;;;;;;;;;;;21.60;70.30;;;;;;5015766;28;2127;-72
2021/09/22 06:14:02;;;;;;;;;;;21.60;70.10;;;;;;5052162;28;1300;-71
2021/09/22 06:16:28;;;;;;;;;;;21.60;70.00;;;;;;5060139;28;1196;-73
2021/09/22 06:18:53;;;;;;;;;;;21.60;70.00;;;;;;5054385;28;1307;-71
2021/09/22 06:21:19;;;;;;;;;;;21.60;69.60;;;;;;5054407;28;1248;-71
2021/09/22 06:23:44;;;;;;;;;;;21.60;69.70;;;;;;5054304;28;1330;-72
2021/09/22 06:26:09;;;;;;;;;;;21.60;69.70;;;;;;5053948;28;1064;-74
2021/09/22 06:28:35;;;;;;;;;;;21.60;69.60;;;;;;5052496;28;1264;-71
2021/09/22 06:31:01;;;;;;;;;;;21.60;69.30;;;;;;5033903;28;1898;-71
2021/09/22 06:33:26;;;;;;;;;;;21.60;69.30;;;;;;5052204;28;1335;-72
2021/09/22 06:35:55;;;;;;;;;;;21.60;69.40;;;;;;5051913;28;1290;-72
2021/09/22 06:38:20;;;;;;;;;;;21.50;69.20;;;;;;5051813;28;1308;-70
2021/09/22 06:40:47;;;;;;;;;;;21.50;69.20;;;;;;5052333;28;1387;-72
2021/09/22 06:43:12;;;;;;;;;;;21.50;69.20;;;;;;5052063;28;1274;-73
2021/09/22 06:45:38;;;;;;;;;;;21.50;69.40;;;;;;5051627;28;1119;-72
2021/09/22 06:48:03;;;;;;;;;;;21.50;69.20;;;;;;5051918;28;1312;-72
2021/09/22 06:50:29;;;;;;;;;;;21.50;69.10;;;;;;5051686;28;1910;-70
2021/09/22 06:52:55;;;;;;;;;;;21.50;69.10;;;;;;5037364;28;1321;-69
2021/09/22 06:55:20;;;;;;;;;;;21.50;69.90;;;;;;5055733;28;1132;-73
2021/09/22 06:57:46;;;;;;;;;;;21.50;69.10;;;;;;5055315;28;1257;-73
2021/09/22 07:00:13;;;;;;;;;;;21.50;68.90;;;;;;5037556;28;1136;-72
2021/09/22 07:02:38;;;;;;;;;;;21.50;69.00;;;;;;5037909;28;1368;-73
2021/09/22 07:05:07;;;;;;;;;;;21.40;69.00;;;;;;5037099;28;1147;-72
2021/09/22 07:07:33;;;;;;;;;;;21.40;69.10;;;;;;5055206;28;1021;-73
2021/09/22 07:09:58;;;;;;;;;;;21.40;69.10;;;;;;5055251;28;1957;-72
2021/09/22 07:12:23;;;;;;;;;;;21.40;69.00;;;;;;5055218;28;1316;-72
2021/09/22 07:14:49;;;;;;;;;;;21.40;69.10;;;;;;5037208;28;1100;-72
2021/09/22 07:17:17;;;;;;;;;;;21.40;69.20;;;;;;5055041;28;1203;-71
2021/09/22 07:19:42;;;;;;;;;;;21.40;69.20;;;;;;5055265;28;1131;-72
2021/09/22 07:22:08;;;;;;;;;;;21.40;69.20;;;;;;5055198;28;1258;-72
2021/09/22 07:24:33;;;;;;;;;;;21.40;69.20;;;;;;5055026;28;1080;-72
2021/09/22 07:26:59;;;;;;;;;;;21.40;69.40;;;;;;5054816;28;1124;-73
2021/09/22 07:29:24;;;;;;;;;;;21.40;69.30;;;;;;5054868;28;1965;-72
2021/09/22 07:31:50;;;;;;;;;;;21.40;69.30;;;;;;5037183;28;1369;-74
2021/09/22 07:34:15;;;;;;;;;;;21.40;69.30;;;;;;5037411;28;1139;-72
2021/09/22 07:36:41;;;;;;;;;;;21.40;69.20;;;;;;5054523;28;1107;-72
2021/09/22 07:39:06;;;;;;;;;;;21.40;69.30;;;;;;5054846;28;997;-74
2021/09/22 07:41:31;;;;;;;;;;;21.40;69.40;;;;;;5054692;28;1256;-72
2021/09/22 07:43:57;;;;;;;;;;;21.40;69.30;;;;;;5036714;28;1147;-72
2021/09/22 07:46:22;;;;;;;;;;;21.30;69.30;;;;;;5054325;28;1139;-74
2021/09/22 07:48:48;;;;;;;;;;;21.30;69.40;;;;;;5054890;28;1400;-72
2021/09/22 07:51:13;;;;;;;;;;;21.30;69.40;;;;;;5054568;28;1906;-72
2021/09/22 07:53:39;;;;;;;;;;;21.30;69.40;;;;;;5054717;28;1293;-72
2021/09/22 07:56:04;;;;;;;;;;;21.30;69.40;;;;;;5054223;28;1380;-72
2021/09/22 07:58:29;;;;;;;;;;;21.30;69.40;;;;;;5036590;28;1339;-72
2021/09/22 08:00:55;;;;;;;;;;;21.30;69.50;;;;;;5054314;28;1316;-72
2021/09/22 08:03:20;;;;;;;;;;;21.30;69.50;;;;;;5036542;28;1323;-72
2021/09/22 08:05:46;;;;;;;;;;;21.30;69.50;;;;;;5054034;28;1056;-72
2021/09/22 08:08:11;;;;;;;;;;;21.30;69.40;;;;;;5054390;28;1342;-72
2021/09/22 08:10:37;;;;;;;;;;;21.30;70.20;;;;;;5036411;28;1906;-72
2021/09/22 08:13:02;;;;;;;;;;;21.30;69.50;;;;;;5054074;28;1374;-71
2021/09/22 08:15:28;;;;;;;;;;;21.30;69.40;;;;;;5036236;28;1477;-72
2021/09/22 08:17:53;;;;;;;;;;;21.30;69.50;;;;;;5036009;28;1340;-72
2021/09/22 08:20:18;;;;;;;;;;;21.30;69.50;;;;;;5054009;28;1311;-72
2021/09/22 08:22:44;;;;;;;;;;;21.30;69.30;;;;;;5054176;28;1325;-72
2021/09/22 08:25:09;;;;;;;;;;;21.30;69.50;;;;;;5036038;28;1291;-72
2021/09/22 08:27:35;;;;;;;;;;;21.30;69.50;;;;;;5053539;28;1280;-72
2021/09/22 08:30:00;;;;;;;;;;;21.20;69.40;;;;;;5053823;28;1898;-72
2021/09/22 08:32:26;;;;;;;;;;;21.20;69.40;;;;;;5036126;28;1422;-72
2021/09/22 08:34:51;;;;;;;;;;;21.20;70.20;;;;;;5053815;28;1275;-72
2021/09/22 08:37:17;;;;;;;;;;;21.20;69.40;;;;;;5035678;28;1379;-72
2021/09/22 08:39:42;;;;;;;;;;;21.20;69.40;;;;;;5053621;28;1471;-72
2021/09/22 08:42:07;;;;;;;;;;;21.20;69.20;;;;;;5053307;28;1344;-73
2021/09/22 08:44:34;;;;;;;;;;;21.20;68.20;;;;;;5035792;28;1296;-72
2021/09/22 08:46:59;;;;;;;;;;;21.20;66.90;;;;;;5053184;28;1313;-72
2021/09/22 08:49:25;;;;;;;;;;;21.20;67.20;;;;;;5035659;28;1973;-72
2021/09/22 08:51:50;;;;;;;;;;;21.20;66.70;;;;;;5035545;28;1443;-72
2021/09/22 08:54:16;;;;;;;;;;;21.10;66.30;;;;;;5053323;28;1287;-72
2021/09/22 08:56:41;;;;;;;;;;;21.10;66.90;;;;;;5052892;28;1326;-75
2021/09/22 08:59:07;;;;;;;;;;;21.10;66.30;;;;;;5016058;28;1315;-76
2021/09/22 09:01:32;;;;;;;;;;;21.10;66.50;;;;;;5052766;28;1280;-75
2021/09/22 09:03:58;;;;;;;;;;;21.20;66.40;;;;;;5066338;28;1370;-75
2021/09/22 09:06:24;;;;;;;;;;;21.10;66.20;;;;;;5054872;28;1431;-74
2021/09/22 09:11:31;;;;;;;;;;;21.10;66.30;;;;;;5464880;23;2666;-73
2021/09/22 09:13:58;;;;;;;;;;;21.10;66.90;;;;;;5042903;28;2157;-74
2021/09/22 09:16:24;;;;;;;;;;;21.10;67.10;;;;;;5043494;28;1942;-74
2021/09/22 09:18:53;;;;;;;;;;;21.10;67.70;;;;;;5023515;28;1629;-73
2021/09/22 09:21:19;;;;;;;;;;;21.10;68.30;;;;;;5017208;28;2168;-74
2021/09/22 09:23:52;;;;;;;;;;;21.10;68.60;;;;;;5035352;28;1455;-76
2021/09/22 09:26:24;;;;;;;;;;;21.10;68.50;;;;;;5031796;23;3989;-70
2021/09/22 09:28:51;;;;;;;;;;;21.10;68.70;;;;;;5037029;28;1778;-70
2021/09/22 09:31:16;;;;;;;;;;;21.10;68.80;;;;;;5046715;28;1910;-70
2021/09/22 09:33:46;;;;;;;;;;;21.10;68.90;;;;;;5034533;28;1343;-70
2021/09/22 09:36:18;;;;;;;;;;;21.10;69.00;;;;;;5039853;28;1354;-70
2021/09/22 09:38:47;;;;;;;;;;;21.10;69.10;;;;;;5028883;28;1237;-70
2021/09/22 09:41:20;;;;;;;;;;;21.10;69.10;;;;;;5008124;28;1286;-70
2021/09/22 09:43:46;;;;;;;;;;;21.10;69.00;;;;;;5031833;28;1334;-70
2021/09/22 09:46:17;;;;;;;;;;;21.10;69.00;;;;;;5015932;28;1950;-70
2021/09/22 09:48:43;;;;;;;;;;;21.10;69.10;;;;;;5027228;28;1121;-70
2021/09/22 09:51:11;;;;;;;;;;;21.00;69.20;;;;;;4994983;28;1902;-70
2021/09/22 09:53:36;;;;;;;;;;;21.10;69.20;;;;;;5012152;28;1300;-71
2021/09/22 09:56:04;;;;;;;;;;;21.10;69.30;;;;;;5012586;28;1322;-70
2021/09/22 09:58:39;;;;;;;;;;;21.10;69.40;;;;;;5025254;28;1270;-70
2021/09/22 10:01:04;;;;;;;;;;;21.10;69.30;;;;;;5014351;28;1283;-70
2021/09/22 10:03:29;;;;;;;;;;;21.10;70.10;;;;;;5032161;28;1844;-70
2021/09/22 10:05:57;;;;;;;;;;;21.00;69.30;;;;;;5014329;28;1309;-70
2021/09/22 10:08:23;;;;;;;;;;;21.00;69.40;;;;;;5014929;28;1236;-70
2021/09/22 10:10:49;;;;;;;;;;;21.00;69.40;;;;;;5031395;28;1907;-70
2021/09/22 10:13:15;;;;;;;;;;;21.10;69.40;;;;;;5003906;28;1303;-71
2021/09/22 10:15:41;;;;;;;;;;;21.10;69.50;;;;;;4994718;28;1362;-70
2021/09/22 10:18:07;;;;;;;;;;;21.10;69.50;;;;;;4978711;28;1684;-70
2021/09/22 10:20:32;;;;;;;;;;;21.00;69.30;;;;;;4997401;28;1288;-70
2021/09/22 10:22:58;;;;;;;;;;;21.10;69.60;;;;;;5032218;28;1287;-70
2021/09/22 10:25:24;;;;;;;;;;;21.10;69.60;;;;;;5012246;28;1349;-70
2021/09/22 10:27:49;;;;;;;;;;;21.00;69.50;;;;;;5014091;28;1295;-70
2021/09/22 10:30:15;;;;;;;;;;;21.00;69.50;;;;;;5015586;28;1938;-70
2021/09/22 10:32:41;;;;;;;;;;;21.00;69.40;;;;;;4998621;28;1100;-70
2021/09/22 10:35:30;;;;;;;;;;;21.10;69.70;;;;;;5015881;28;1368;-70
2021/09/22 10:37:57;;;;;;;;;;;21.00;69.60;;;;;;5007247;28;1347;-70
2021/09/22 10:40:46;;;;;;;;;;;21.00;69.40;;;;;;5014942;28;1296;-70
2021/09/22 10:43:15;;;;;;;;;;;21.00;68.70;;;;;;5031433;28;1233;-70
2021/09/22 10:45:40;;;;;;;;;;;21.00;69.00;;;;;;5035201;28;1273;-70
2021/09/22 10:48:16;;;;;;;;;;;21.00;69.20;;;;;;5001745;28;1694;-70
2021/09/22 10:50:41;;;;;;;;;;;21.00;69.40;;;;;;5015152;28;1898;-70
2021/09/22 10:53:25;;;;;;;;;;;21.00;69.70;;;;;;5015422;28;1108;-70
2021/09/22 10:55:59;;;;;;;;;;;21.10;69.50;;;;;;5015164;28;1351;-70
2021/09/22 10:58:25;;;;;;;;;;;21.00;69.70;;;;;;5015405;28;1313;-69
2021/09/22 11:00:50;;;;;;;;;;;21.00;69.60;;;;;;4981152;28;1274;-69
2021/09/22 11:03:15;;;;;;;;;;;21.00;69.40;;;;;;5012648;28;2175;-70
2021/09/22 11:05:44;;;;;;;;;;;21.00;69.70;;;;;;5016344;28;1355;-69
2021/09/22 11:08:11;;;;;;;;;;;21.00;69.80;;;;;;5013362;28;1048;-70
2021/09/22 11:10:39;;;;;;;;;;;21.00;70.00;;;;;;5016917;28;1965;-69
2021/09/22 11:13:21;;;;;;;;;;;21.00;70.00;;;;;;5003423;28;1403;-72
2021/09/22 11:15:47;;;;;;;;;;;21.00;70.10;;;;;;5013730;28;1363;-72
2021/09/22 11:18:14;;;;;;;;;;;21.00;70.10;;;;;;5013220;28;1167;-70
2021/09/22 11:20:39;;;;;;;;;;;21.00;70.10;;;;;;5014502;28;1276;-70
2021/09/22 11:23:08;;;;;;;;;;;21.00;68.40;;;;;;5033536;28;1320;-70
2021/09/22 11:25:34;;;;;;;;;;;21.00;68.40;;;;;;5034580;28;1308;-68
2021/09/22 11:28:05;;;;;;;;;;;21.00;69.30;;;;;;5028626;28;1532;-68
2021/09/22 11:30:31;;;;;;;;;;;21.00;69.60;;;;;;5012084;28;2403;-68
2021/09/22 11:32:57;;;;;;;;;;;21.00;69.70;;;;;;5010883;28;1440;-68
2021/09/22 11:35:22;;;;;;;;;;;21.00;69.80;;;;;;5015103;28;1260;-68
2021/09/22 11:37:52;;;;;;;;;;;21.00;69.90;;;;;;4997110;28;1290;-68
2021/09/22 11:40:18;;;;;;;;;;;21.00;69.90;;;;;;5014937;28;1295;-68
2021/09/22 11:42:54;;;;;;;;;;;21.00;70.00;;;;;;4997871;28;1289;-68
2021/09/22 11:45:40;;;;;;;;;;;21.00;70.00;;;;;;5015019;28;1263;-68
2021/09/22 11:48:05;;;;;;;;;;;21.00;70.10;;;;;;5014639;28;1272;-68
2021/09/22 11:50:34;;;;;;;;;;;21.00;70.10;;;;;;5014639;28;1961;-68
2021/09/22 11:53:00;;;;;;;;;;;21.00;70.10;;;;;;5015068;28;1267;-68
2021/09/22 11:55:25;;;;;;;;;;;21.00;70.10;;;;;;5014718;28;1485;-68
2021/09/22 11:57:51;;;;;;;;;;;21.00;70.20;;;;;;4997430;28;1288;-68
2021/09/22 12:00:17;;;;;;;;;;;21.00;70.20;;;;;;5014673;28;1521;-68
2021/09/22 12:02:42;;;;;;;;;;;21.00;70.20;;;;;;5014892;28;1269;-68
2021/09/22 12:05:08;;;;;;;;;;;21.00;70.30;;;;;;4997106;28;1411;-68
2021/09/22 12:07:33;;;;;;;;;;;21.00;70.30;;;;;;4996965;28;1334;-68
2021/09/22 12:09:59;;;;;;;;;;;21.00;70.30;;;;;;4996653;28;1936;-68
2021/09/22 12:12:24;;;;;;;;;;;21.00;70.20;;;;;;4996927;28;1266;-68
2021/09/22 12:14:51;;;;;;;;;;;21.00;70.20;;;;;;5014417;28;1367;-68
2021/09/22 12:17:17;;;;;;;;;;;21.00;70.30;;;;;;5014822;28;729;-68
2021/09/22 12:19:42;;;;;;;;;;;21.00;70.30;;;;;;5025797;28;1060;-68
2021/09/22 12:22:08;;;;;;;;;;;21.00;70.30;;;;;;4996735;28;1265;-68
2021/09/22 12:24:34;;;;;;;;;;;21.00;70.40;;;;;;5016476;28;1359;-68
2021/09/22 12:27:00;;;;;;;;;;;21.00;70.30;;;;;;5016553;28;1319;-68
2021/09/22 12:29:25;;;;;;;;;;;21.00;70.30;;;;;;5016770;28;1961;-68
2021/09/22 12:31:54;;;;;;;;;;;21.00;70.30;;;;;;5018255;28;1295;-68
2021/09/22 12:34:20;;;;;;;;;;;21.00;70.40;;;;;;5011749;28;2237;-70
2021/09/22 12:36:46;;;;;;;;;;;21.00;70.30;;;;;;4989094;28;1547;-70
2021/09/22 12:39:15;;;;;;;;;;;21.00;70.40;;;;;;5012711;28;1357;-71
2021/09/22 12:41:55;;;;;;;;;;;21.00;70.40;;;;;;4996442;28;1348;-70
2021/09/22 12:44:21;;;;;;;;;;;21.00;70.40;;;;;;5013972;28;1337;-71
2021/09/22 12:46:47;;;;;;;;;;;21.00;70.40;;;;;;5013999;28;1364;-70
2021/09/22 12:49:13;;;;;;;;;;;21.00;70.40;;;;;;4995676;28;1962;-70
2021/09/22 12:51:44;;;;;;;;;;;21.00;70.30;;;;;;5013527;28;1276;-70
2021/09/22 12:54:12;;;;;;;;;;;21.00;70.50;;;;;;4996311;28;1374;-70
2021/09/22 12:56:38;;;;;;;;;;;21.00;69.70;;;;;;5013713;28;1368;-70
2021/09/22 12:59:19;;;;;;;;;;;21.00;67.70;;;;;;5013705;28;1369;-70
2021/09/22 13:01:49;;;;;;;;;;;21.00;66.70;;;;;;5013584;28;1252;-70
2021/09/22 13:04:24;;;;;;;;;;;21.00;68.40;;;;;;5013524;28;1269;-70
2021/09/22 13:06:50;;;;;;;;;;;21.00;66.50;;;;;;4995970;28;1281;-69
2021/09/22 13:09:15;;;;;;;;;;;21.00;67.80;;;;;;5013462;28;1894;-70
2021/09/22 13:11:41;;;;;;;;;;;21.00;68.90;;;;;;5013336;28;1517;-70
2021/09/22 13:14:06;;;;;;;;;;;21.00;69.40;;;;;;5013532;28;1324;-70
2021/09/22 13:16:38;;;;;;;;;;;21.00;69.60;;;;;;5013577;28;1257;-70
2021/09/22 13:19:04;;;;;;;;;;;21.00;69.90;;;;;;5022456;28;1246;-71
2021/09/22 13:21:30;;;;;;;;;;;21.00;70.00;;;;;;5013868;28;1223;-72
2021/09/22 13:23:57;;;;;;;;;;;21.00;69.10;;;;;;5013482;28;1376;-71
2021/09/22 13:26:22;;;;;;;;;;;20.90;68.10;;;;;;5012982;28;1252;-72
2021/09/22 13:28:48;;;;;;;;;;;21.00;69.20;;;;;;4995910;28;1309;-70
2021/09/22 13:31:14;;;;;;;;;;;21.00;69.60;;;;;;4995415;28;1914;-69
2021/09/22 13:33:39;;;;;;;;;;;20.90;69.60;;;;;;4995671;28;1272;-70
2021/09/22 13:36:05;;;;;;;;;;;21.00;69.90;;;;;;5013177;28;1413;-69
2021/09/22 13:38:30;;;;;;;;;;;21.00;70.00;;;;;;5013262;28;1303;-69
2021/09/22 13:40:56;;;;;;;;;;;21.00;70.10;;;;;;4995331;28;1423;-69
2021/09/22 13:43:25;;;;;;;;;;;21.00;70.20;;;;;;5013176;28;1347;-69
2021/09/22 13:45:51;;;;;;;;;;;20.90;70.20;;;;;;5012959;28;1377;-70
2021/09/22 13:48:16;;;;;;;;;;;20.90;70.20;;;;;;5013163;28;1296;-70
2021/09/22 13:50:42;;;;;;;;;;;21.00;70.30;;;;;;5012653;28;1971;-69
2021/09/22 13:53:07;;;;;;;;;;;21.00;70.40;;;;;;4995664;28;1249;-69
2021/09/22 13:55:32;;;;;;;;;;;21.00;70.40;;;;;;4995380;28;1415;-69
2021/09/22 13:57:58;;;;;;;;;;;21.00;70.40;;;;;;5013127;28;1323;-70
2021/09/22 14:00:23;;;;;;;;;;;20.90;70.40;;;;;;5013493;28;1266;-70
2021/09/22 14:02:50;;;;;;;;;;;21.00;70.50;;;;;;5017354;28;1041;-70
2021/09/22 14:05:15;;;;;;;;;;;21.00;70.50;;;;;;5019553;28;1205;-70
2021/09/22 14:07:41;;;;;;;;;;;21.00;70.60;;;;;;5019172;28;1253;-70
2021/09/22 14:10:06;;;;;;;;;;;21.00;70.60;;;;;;5036417;28;1902;-70
2021/09/22 14:12:32;;;;;;;;;;;21.00;70.70;;;;;;5036607;28;1256;-70
2021/09/22 14:14:59;;;;;;;;;;;21.00;70.70;;;;;;5020385;28;1269;-69
2021/09/22 14:17:25;;;;;;;;;;;21.00;70.70;;;;;;5016874;28;1079;-69
2021/09/22 14:19:50;;;;;;;;;;;21.00;70.70;;;;;;5016856;28;1124;-69
2021/09/22 14:22:16;;;;;;;;;;;20.90;70.70;;;;;;5016814;28;1116;-70
2021/09/22 14:24:41;;;;;;;;;;;21.00;70.80;;;;;;5015623;28;1277;-70
2021/09/22 14:27:08;;;;;;;;;;;21.00;70.80;;;;;;5036286;28;1316;-70